Terminal Aerodrome Forecast
Issued by NWS

Home | Current Version | Previous Version | Text Only | Print | Product List | Glossary On
Versions: 1 2 3 4 5 6 7 8 9 10 11 12 13 14 15 16 17 18 19 20 21 22 23 24 25 26 27
000
FTUS41 KBUF 311700
TAFIAG
TAF
KIAG 311727Z 3118/0118 15006KT 6SM -SHRA SCT025 BKN035 OVC060
     FM311900 10005KT 6SM -SHRA BKN025 OVC060
     FM312200 06006KT 6SM -SHRA BKN025 OVC060
     FM010600 02007KT 6SM -SHRA BKN025 OVC060
     FM011200 02013G23KT 6SM -SHRA BKN025 OVC060=

USA.gov is the U.S. government's official web portal to all federal, state and local government web resources and services.